Time;durP1;ratioP1;P1;durP2;ratioP2;P2;SDS_P1;SDS_P2;PMS_P1;PMS_P2;Temp;Humidity;BMP_temperature;BMP_pressure;BME280_temperature;BME280_humidity;BME280_pressure;Samples;Min_cycle;Max_cycle;Signal;HPM_P1;HPM_P2
2021/10/01 00:00:59;;;;;;;1.30;0.80;;;22.20;59.20;;;;;;5011075;28;20477;-62
2021/10/01 00:03:25;;;;;;;2.60;1.00;;;22.20;59.10;;;;;;5012921;28;20112;-62
2021/10/01 00:05:50;;;;;;;2.40;1.45;;;22.20;59.10;;;;;;5011878;28;20030;-61
2021/10/01 00:08:16;;;;;;;1.85;1.08;;;22.20;59.20;;;;;;5012380;28;20038;-61
2021/10/01 00:10:41;;;;;;;1.73;0.90;;;22.20;59.10;;;;;;5009932;28;20044;-62
2021/10/01 00:13:07;;;;;;;5.07;1.08;;;22.10;59.00;;;;;;5012844;28;20022;-62
2021/10/01 00:15:33;;;;;;;2.17;1.00;;;22.20;59.00;;;;;;5011822;28;20356;-61
2021/10/01 00:17:59;;;;;;;1.75;1.00;;;22.20;58.90;;;;;;5012428;28;20057;-62
2021/10/01 00:20:24;;;;;;;1.27;0.85;;;22.20;58.80;;;;;;5011956;28;20034;-62
2021/10/01 00:22:50;;;;;;;2.75;1.50;;;22.20;58.80;;;;;;5011843;28;20022;-61
2021/10/01 00:25:15;;;;;;;1.35;0.90;;;22.20;58.80;;;;;;5012664;28;20069;-62
2021/10/01 00:27:41;;;;;;;2.22;0.88;;;22.20;58.80;;;;;;5011005;28;20497;-62
2021/10/01 00:30:07;;;;;;;1.70;1.10;;;22.20;58.80;;;;;;5012182;28;20034;-62
2021/10/01 00:32:33;;;;;;;1.48;1.05;;;22.20;58.70;;;;;;5011628;28;20025;-61
2021/10/01 00:35:00;;;;;;;1.52;0.98;;;22.20;58.70;;;;;;5012191;28;20040;-63
2021/10/01 00:37:26;;;;;;;1.33;0.80;;;22.20;58.70;;;;;;5012506;28;20026;-62
2021/10/01 00:39:53;;;;;;;1.90;0.80;;;22.20;58.60;;;;;;5010901;28;20633;-62
2021/10/01 00:42:19;;;;;;;2.22;1.08;;;22.10;58.70;;;;;;5012183;28;20022;-62
2021/10/01 00:44:45;;;;;;;1.40;1.00;;;22.20;58.60;;;;;;5009007;28;20095;-62
2021/10/01 00:47:11;;;;;;;1.08;0.90;;;22.10;58.50;;;;;;5010328;28;20045;-62
2021/10/01 00:49:37;;;;;;;2.72;1.15;;;22.20;58.50;;;;;;5009676;28;20037;-61
2021/10/01 00:52:03;;;;;;;1.48;0.90;;;22.20;58.60;;;;;;5010487;28;20382;-62
2021/10/01 00:54:28;;;;;;;2.05;1.00;;;22.20;58.50;;;;;;5008521;28;20036;-60
2021/10/01 00:56:56;;;;;;;2.05;1.20;;;22.10;58.50;;;;;;5010207;28;20029;-62
2021/10/01 00:59:22;;;;;;;1.08;0.80;;;22.20;58.50;;;;;;5009882;28;20368;-62
2021/10/01 01:01:47;;;;;;;2.05;0.90;;;22.20;58.40;;;;;;5010856;28;20040;-62
2021/10/01 01:04:13;;;;;;;2.10;1.10;;;22.10;58.40;;;;;;5011888;28;20026;-63
2021/10/01 01:06:47;;;;;;;1.33;1.00;;;22.10;58.40;;;;;;5010312;28;20046;-62
2021/10/01 01:09:38;;;;;;;2.05;1.20;;;22.10;58.40;;;;;;5008806;28;20046;-62
2021/10/01 01:12:06;;;;;;;1.48;1.08;;;22.10;58.30;;;;;;5010632;28;20068;-62
2021/10/01 01:15:12;;;;;;;1.85;1.25;;;22.10;58.30;;;;;;5009393;28;20030;-59
2021/10/01 01:17:50;;;;;;;2.35;1.20;;;22.10;58.30;;;;;;5008361;28;20038;-62
2021/10/01 01:20:39;;;;;;;2.08;1.33;;;22.10;58.20;;;;;;5008027;28;20026;-62
2021/10/01 01:23:43;;;;;;;1.15;0.80;;;22.10;58.20;;;;;;5010064;28;20047;-61
2021/10/01 01:26:46;;;;;;;2.28;0.93;;;22.10;58.20;;;;;;5008402;28;20112;-62
2021/10/01 01:29:37;;;;;;;1.65;0.80;;;22.10;58.10;;;;;;5007963;28;20107;-61
2021/10/01 01:32:18;;;;;;;1.10;0.70;;;22.10;58.10;;;;;;5009522;28;20681;-61
2021/10/01 01:34:51;;;;;;;1.30;0.80;;;22.10;58.10;;;;;;5013445;28;20030;-62
2021/10/01 01:37:24;;;;;;;4.88;1.00;;;22.10;58.10;;;;;;5014018;28;20022;-62
2021/10/01 01:39:51;;;;;;;5.18;1.35;;;22.10;58.00;;;;;;5010518;28;20030;-62
2021/10/01 01:42:18;;;;;;;1.67;0.90;;;22.10;58.00;;;;;;5012604;28;20053;-62
2021/10/01 01:44:46;;;;;;;2.47;1.10;;;22.10;58.00;;;;;;5011934;28;20060;-62
2021/10/01 01:47:12;;;;;;;1.60;1.10;;;22.10;58.00;;;;;;5013673;28;20021;-62
2021/10/01 01:49:38;;;;;;;1.65;1.02;;;22.10;57.90;;;;;;5013385;28;20034;-62
2021/10/01 01:52:05;;;;;;;1.75;1.05;;;22.10;57.80;;;;;;5013311;28;20034;-62
2021/10/01 01:54:33;;;;;;;1.52;1.08;;;22.10;57.80;;;;;;5013272;28;20108;-60
2021/10/01 01:57:01;;;;;;;1.70;0.90;;;22.10;57.80;;;;;;5013926;28;20374;-62
2021/10/01 01:59:27;;;;;;;2.42;0.98;;;22.10;57.80;;;;;;5011078;28;20030;-62
2021/10/01 02:01:53;;;;;;;2.00;0.82;;;22.10;57.70;;;;;;5012721;28;20033;-62
2021/10/01 02:04:22;;;;;;;2.47;0.80;;;22.10;57.70;;;;;;5013772;28;20089;-62
2021/10/01 02:06:48;;;;;;;1.92;1.08;;;22.10;57.60;;;;;;5012705;28;20041;-61
2021/10/01 02:09:15;;;;;;;1.65;0.90;;;22.10;57.70;;;;;;5013038;28;20041;-61
2021/10/01 02:11:43;;;;;;;1.33;0.73;;;22.10;57.60;;;;;;5013032;28;20032;-62
2021/10/01 02:14:12;;;;;;;1.15;0.80;;;22.10;57.60;;;;;;5012414;28;20030;-62
2021/10/01 02:16:39;;;;;;;1.90;1.05;;;22.10;57.50;;;;;;5012265;28;20041;-62
2021/10/01 02:19:06;;;;;;;1.20;0.80;;;22.10;57.50;;;;;;5013038;28;20034;-62
2021/10/01 02:21:33;;;;;;;1.30;0.90;;;22.10;57.50;;;;;;5012742;28;20068;-60
2021/10/01 02:23:59;;;;;;;2.28;0.90;;;22.10;57.40;;;;;;5012692;28;20026;-61
2021/10/01 02:27:03;;;;;;;2.22;1.10;;;22.10;57.50;;;;;;5013332;28;20032;-61
2021/10/01 02:29:48;;;;;;;2.00;0.90;;;22.10;57.40;;;;;;4980560;28;20096;-62
2021/10/01 02:32:29;;;;;;;1.30;0.90;;;22.10;57.40;;;;;;5010288;28;20025;-61
2021/10/01 02:34:54;;;;;;;2.65;1.35;;;22.10;57.40;;;;;;5007479;28;20117;-62
2021/10/01 02:37:20;;;;;;;1.70;0.80;;;22.10;57.30;;;;;;5012545;28;20752;-61
2021/10/01 02:39:49;;;;;;;2.20;1.00;;;22.10;57.30;;;;;;5011960;28;20037;-62
2021/10/01 02:42:16;;;;;;;1.98;0.90;;;22.10;57.30;;;;;;5010978;28;20029;-62
2021/10/01 02:44:44;;;;;;;2.67;0.95;;;22.10;57.20;;;;;;5011789;28;20145;-62
2021/10/01 02:47:10;;;;;;;2.08;1.08;;;22.10;57.10;;;;;;5012616;28;20029;-62
2021/10/01 02:49:38;;;;;;;1.45;0.80;;;22.10;57.20;;;;;;5011648;28;20119;-61
2021/10/01 02:52:11;;;;;;;1.02;0.80;;;22.10;57.20;;;;;;5012239;28;20475;-61
2021/10/01 02:54:45;;;;;;;1.10;0.80;;;22.10;57.10;;;;;;5009053;28;20065;-61
2021/10/01 02:57:15;;;;;;;1.88;0.98;;;22.10;57.10;;;;;;5012883;28;20021;-62
2021/10/01 02:59:44;;;;;;;1.13;0.75;;;22.10;57.10;;;;;;5012015;28;20145;-62
2021/10/01 03:02:11;;;;;;;1.20;0.80;;;22.10;57.00;;;;;;5013291;28;20379;-62
2021/10/01 03:04:37;;;;;;;0.98;0.77;;;22.10;57.10;;;;;;5012775;28;20514;-62
2021/10/01 03:07:04;;;;;;;1.83;0.95;;;22.00;57.00;;;;;;5013899;28;20053;-62
2021/10/01 03:09:32;;;;;;;1.05;0.73;;;22.10;57.00;;;;;;5012093;28;20042;-60
2021/10/01 03:11:59;;;;;;;1.88;0.90;;;22.10;57.00;;;;;;5013230;28;20041;-62
2021/10/01 03:14:26;;;;;;;1.67;0.90;;;22.10;56.90;;;;;;5012799;28;20034;-62
2021/10/01 03:16:53;;;;;;;1.75;0.75;;;22.10;56.90;;;;;;5012579;28;20612;-62
2021/10/01 03:19:22;;;;;;;1.15;0.60;;;22.00;56.80;;;;;;5013255;28;20037;-62
2021/10/01 03:21:52;;;;;;;2.08;1.10;;;22.10;56.80;;;;;;5012852;28;20066;-62
2021/10/01 03:24:20;;;;;;;1.88;0.80;;;22.10;56.80;;;;;;5013332;28;20030;-62
2021/10/01 03:26:47;;;;;;;1.75;0.90;;;22.00;56.70;;;;;;5012449;28;20100;-61
2021/10/01 03:29:13;;;;;;;1.38;0.82;;;22.00;56.70;;;;;;5013527;28;20037;-62
2021/10/01 03:31:39;;;;;;;1.00;0.80;;;22.10;56.70;;;;;;5012077;28;20030;-61
2021/10/01 03:34:07;;;;;;;1.10;0.80;;;22.00;56.70;;;;;;5013393;28;20038;-60
2021/10/01 03:36:34;;;;;;;1.15;0.90;;;22.00;56.60;;;;;;5012906;28;20041;-60
2021/10/01 03:39:02;;;;;;;2.55;0.90;;;22.10;56.60;;;;;;5013247;28;20030;-62
2021/10/01 03:41:27;;;;;;;1.10;0.73;;;22.00;56.50;;;;;;5013308;28;20451;-62
2021/10/01 03:43:53;;;;;;;0.85;0.60;;;22.10;56.50;;;;;;5012458;28;20032;-62
2021/10/01 03:46:19;;;;;;;1.15;0.80;;;22.00;56.50;;;;;;5013309;28;20129;-62
2021/10/01 03:48:45;;;;;;;1.48;0.82;;;22.00;56.50;;;;;;5011772;28;20072;-62
2021/10/01 03:51:10;;;;;;;1.42;0.80;;;22.00;56.40;;;;;;5012809;28;20044;-62
2021/10/01 03:53:36;;;;;;;1.90;0.98;;;22.10;56.50;;;;;;5011778;28;20061;-60
2021/10/01 03:56:02;;;;;;;2.08;0.90;;;22.10;56.50;;;;;;4992957;28;20034;-62
2021/10/01 03:58:28;;;;;;;2.22;0.93;;;22.00;56.30;;;;;;4993048;28;20030;-62
2021/10/01 04:00:54;;;;;;;1.48;0.95;;;22.00;56.30;;;;;;5010868;28;20029;-62
2021/10/01 04:03:19;;;;;;;1.00;0.70;;;22.00;56.30;;;;;;5012283;28;20045;-62
2021/10/01 04:05:45;;;;;;;1.23;0.90;;;22.00;56.30;;;;;;5011790;28;20038;-61
2021/10/01 04:08:12;;;;;;;1.95;0.88;;;22.10;56.30;;;;;;5011858;28;20045;-61
2021/10/01 04:10:38;;;;;;;1.00;0.70;;;22.00;56.10;;;;;;5015957;28;20087;-61
2021/10/01 04:13:07;;;;;;;1.08;0.68;;;22.00;56.20;;;;;;5031851;28;20442;-61
2021/10/01 04:15:33;;;;;;;1.85;0.88;;;22.00;56.10;;;;;;5015148;28;20447;-61
2021/10/01 04:17:59;;;;;;;2.10;0.85;;;22.00;56.10;;;;;;5011079;28;20061;-61
2021/10/01 04:20:25;;;;;;;2.42;0.95;;;22.00;56.00;;;;;;5011524;28;20088;-62
2021/10/01 04:22:51;;;;;;;0.82;0.60;;;22.00;56.00;;;;;;5010912;28;20032;-62
2021/10/01 04:25:17;;;;;;;1.10;0.88;;;22.00;56.00;;;;;;5011541;28;20034;-61
2021/10/01 04:27:42;;;;;;;0.93;0.70;;;22.00;56.10;;;;;;5010736;28;20521;-61
2021/10/01 04:30:09;;;;;;;1.63;0.82;;;22.00;56.00;;;;;;5011069;28;20041;-62
2021/10/01 04:32:38;;;;;;;2.13;0.70;;;22.00;56.70;;;;;;5011167;28;20467;-60
2021/10/01 04:35:06;;;;;;;2.88;0.60;;;22.00;55.90;;;;;;5010876;28;20543;-61
2021/10/01 04:37:32;;;;;;;1.20;0.95;;;22.00;55.90;;;;;;5011822;28;20446;-62
2021/10/01 04:39:58;;;;;;;0.95;0.73;;;22.00;55.90;;;;;;5010429;28;20118;-62
2021/10/01 04:42:24;;;;;;;1.70;0.90;;;22.00;55.90;;;;;;5011424;28;20034;-61
2021/10/01 04:44:50;;;;;;;0.77;0.77;;;22.00;55.80;;;;;;5010429;28;20530;-62
2021/10/01 04:47:16;;;;;;;1.88;0.63;;;22.00;55.90;;;;;;5011595;28;20042;-62
2021/10/01 04:49:42;;;;;;;1.42;0.98;;;22.00;55.90;;;;;;5010072;28;20137;-62
2021/10/01 04:52:07;;;;;;;1.10;0.80;;;22.00;55.80;;;;;;5010017;28;20022;-62
2021/10/01 04:54:33;;;;;;;1.30;0.73;;;22.00;55.80;;;;;;5011186;28;20056;-62
2021/10/01 04:56:59;;;;;;;1.00;0.73;;;22.00;55.70;;;;;;5010179;28;20514;-62
2021/10/01 04:59:25;;;;;;;2.05;0.93;;;22.00;55.80;;;;;;5011237;28;20474;-62
2021/10/01 05:01:50;;;;;;;1.92;1.00;;;22.00;55.70;;;;;;5009851;28;20034;-62
2021/10/01 05:04:16;;;;;;;1.02;0.70;;;22.00;55.70;;;;;;5011313;28;20045;-60
2021/10/01 05:06:42;;;;;;;1.48;0.73;;;22.00;55.60;;;;;;4971218;28;1126695;-62
2021/10/01 05:09:08;;;;;;;1.08;0.73;;;22.00;55.60;;;;;;5015750;28;20152;-63
2021/10/01 05:11:34;;;;;;;1.00;0.70;;;22.00;55.60;;;;;;5015650;28;20117;-62
2021/10/01 05:13:59;;;;;;;1.95;1.00;;;22.00;56.20;;;;;;5014226;28;20544;-62
2021/10/01 05:16:26;;;;;;;1.33;0.88;;;22.00;55.60;;;;;;5021236;28;20151;-62
2021/10/01 05:18:52;;;;;;;2.80;0.82;;;22.00;55.60;;;;;;5029919;28;20501;-62
2021/10/01 05:21:19;;;;;;;1.50;0.90;;;22.00;55.70;;;;;;5015632;28;20037;-62
2021/10/01 05:23:44;;;;;;;3.95;1.08;;;22.00;55.90;;;;;;5014495;28;20025;-61
2021/10/01 05:26:10;;;;;;;1.58;0.70;;;22.00;56.30;;;;;;5015353;28;20362;-60
2021/10/01 05:28:36;;;;;;;2.63;1.20;;;22.00;56.20;;;;;;5015215;28;20033;-62
2021/10/01 05:31:01;;;;;;;2.30;1.17;;;22.00;54.80;;;;;;5014952;28;20030;-59
2021/10/01 05:33:28;;;;;;;2.00;0.95;;;22.10;53.00;;;;;;5015460;28;20529;-61
2021/10/01 05:35:54;;;;;;;4.18;1.00;;;22.10;54.40;;;;;;5012885;28;20034;-60
2021/10/01 05:38:19;;;;;;;3.58;0.95;;;22.10;54.10;;;;;;5015429;28;20121;-60
2021/10/01 05:40:45;;;;;;;2.60;1.23;;;22.10;52.30;;;;;;5013686;28;20030;-61
2021/10/01 05:43:11;;;;;;;3.38;1.20;;;22.10;49.70;;;;;;5015479;28;20034;-61
2021/10/01 05:45:39;;;;;;;1.77;1.00;;;22.10;48.60;;;;;;5014390;28;20057;-60
2021/10/01 05:48:05;;;;;;;5.25;1.45;;;22.10;49.30;;;;;;5015385;28;20113;-60
2021/10/01 05:50:33;;;;;;;2.53;1.10;;;22.10;48.10;;;;;;5014903;28;20118;-61
2021/10/01 05:53:04;;;;;;;5.18;1.20;;;22.10;46.90;;;;;;5014009;28;20109;-61
2021/10/01 05:55:30;;;;;;;13.07;1.90;;;22.10;48.10;;;;;;5014988;28;20037;-59
2021/10/01 05:57:56;;;;;;;8.52;1.90;;;22.00;50.50;;;;;;5014454;28;20030;-61
2021/10/01 06:00:22;;;;;;;5.63;2.55;;;22.00;51.20;;;;;;5014602;28;20032;-61
2021/10/01 06:02:48;;;;;;;11.32;1.58;;;22.00;50.00;;;;;;5013959;28;20057;-62
2021/10/01 06:05:14;;;;;;;5.47;1.30;;;22.00;53.50;;;;;;5014860;28;20513;-61
2021/10/01 06:07:41;;;;;;;3.45;1.50;;;22.00;53.30;;;;;;5014311;28;20054;-62
2021/10/01 06:10:08;;;;;;;2.90;1.13;;;21.90;50.10;;;;;;5007681;28;20368;-60
2021/10/01 06:12:34;;;;;;;2.20;1.17;;;21.90;46.10;;;;;;5014421;28;20030;-60
2021/10/01 06:15:01;;;;;;;3.38;1.23;;;21.90;45.00;;;;;;5013442;28;20033;-60
2021/10/01 06:17:27;;;;;;;2.58;1.35;;;21.90;44.50;;;;;;5013994;28;20032;-60
2021/10/01 06:19:53;;;;;;;3.45;1.38;;;21.90;44.60;;;;;;5013074;28;20034;-60
2021/10/01 06:22:18;;;;;;;4.00;1.98;;;21.90;44.40;;;;;;5027337;28;20028;-60
2021/10/01 06:24:44;;;;;;;3.42;1.38;;;21.80;44.20;;;;;;5023668;28;20431;-60
2021/10/01 06:27:11;;;;;;;3.25;1.20;;;21.80;44.10;;;;;;5013790;28;20026;-60
2021/10/01 06:29:37;;;;;;;3.38;1.20;;;21.80;44.90;;;;;;5013685;28;20483;-60
2021/10/01 06:32:03;;;;;;;3.47;1.40;;;21.80;43.40;;;;;;5013759;28;20061;-60
2021/10/01 06:34:29;;;;;;;2.08;1.38;;;21.80;44.80;;;;;;5013785;28;20030;-59
2021/10/01 06:36:54;;;;;;;3.45;1.20;;;21.80;43.20;;;;;;5012995;28;20497;-61
2021/10/01 06:39:20;;;;;;;4.78;1.58;;;21.80;43.50;;;;;;5012565;28;20030;-60
2021/10/01 06:41:46;;;;;;;4.97;1.50;;;21.80;43.40;;;;;;5012891;28;20032;-60
2021/10/01 06:44:17;;;;;;;2.83;1.38;;;21.70;44.20;;;;;;5014111;28;20030;-60
2021/10/01 06:52:16;;;;;;;2.15;1.13;;;21.70;43.10;;;;;;5012959;28;20076;-60
2021/10/01 08:19:24;;;;;;;6.75;2.28;;;21.60;43.30;;;;;;5012427;28;20041;-61
2021/10/01 08:21:55;;;;;;;5.50;2.20;;;21.60;43.70;;;;;;5010440;28;20483;-59
2021/10/01 08:24:22;;;;;;;5.28;2.63;;;21.60;43.40;;;;;;5012193;28;20488;-59
2021/10/01 08:26:50;;;;;;;4.85;2.05;;;21.60;43.50;;;;;;5010885;28;20434;-60
2021/10/01 08:29:17;;;;;;;3.90;1.73;;;21.60;43.60;;;;;;5010457;28;20029;-60
2021/10/01 08:31:43;;;;;;;5.10;2.03;;;21.60;43.70;;;;;;5021349;28;20029;-60
2021/10/01 08:34:08;;;;;;;4.43;2.17;;;21.60;43.70;;;;;;5019198;28;20148;-61
2021/10/01 08:36:34;;;;;;;3.60;1.55;;;21.60;43.80;;;;;;5011593;28;20117;-61
2021/10/01 08:39:00;;;;;;;4.65;1.90;;;21.60;43.90;;;;;;5010943;28;20029;-61
2021/10/01 08:41:26;;;;;;;4.22;1.73;;;21.60;44.00;;;;;;5011698;28;20092;-62
2021/10/01 08:43:52;;;;;;;4.10;1.65;;;21.60;44.00;;;;;;5011251;28;20033;-60
2021/10/01 08:46:19;;;;;;;6.03;1.60;;;21.60;43.90;;;;;;5011426;28;20101;-61
2021/10/01 08:48:45;;;;;;;3.05;1.35;;;21.60;44.00;;;;;;5011602;28;20050;-61
2021/10/01 08:51:12;;;;;;;3.92;1.58;;;21.60;44.10;;;;;;5011554;28;20037;-61
2021/10/01 08:53:39;;;;;;;2.85;1.80;;;21.60;44.10;;;;;;5011294;28;20033;-61
2021/10/01 08:56:05;;;;;;;2.13;1.30;;;21.60;44.10;;;;;;5010072;28;20030;-62
2021/10/01 08:58:31;;;;;;;4.78;1.75;;;21.60;44.10;;;;;;5011693;28;20084;-61
2021/10/01 09:00:58;;;;;;;3.50;1.83;;;21.60;44.20;;;;;;5010126;28;20046;-61
2021/10/01 09:03:24;;;;;;;6.43;1.75;;;21.60;44.20;;;;;;5011962;28;20032;-61
2021/10/01 09:05:50;;;;;;;3.45;1.60;;;21.60;44.10;;;;;;5009142;28;20030;-62
2021/10/01 09:08:18;;;;;;;3.05;1.40;;;21.60;44.20;;;;;;5011670;28;20113;-61
2021/10/01 09:11:02;;;;;;;2.88;1.25;;;21.60;44.20;;;;;;5011408;28;20092;-61
2021/10/01 09:13:28;;;;;;;4.68;1.35;;;21.60;44.20;;;;;;5011268;28;20022;-62
2021/10/01 09:16:08;;;;;;;2.53;1.25;;;21.60;44.90;;;;;;5011062;28;20026;-59
2021/10/01 09:18:37;;;;;;;3.60;1.38;;;21.60;45.30;;;;;;5011544;28;20120;-62
2021/10/01 09:21:08;;;;;;;2.50;0.90;;;21.70;45.50;;;;;;5010768;28;20525;-64
2021/10/01 09:23:42;;;;;;;5.03;1.70;;;21.70;45.80;;;;;;5011396;28;20026;-61
2021/10/01 09:26:14;;;;;;;4.40;1.00;;;21.80;47.50;;;;;;5010020;28;20033;-63
2021/10/01 09:28:58;;;;;;;1.75;1.25;;;21.70;46.60;;;;;;5011163;28;20034;-65
2021/10/01 09:31:43;;;;;;;2.78;1.08;;;21.80;47.20;;;;;;5011948;28;20065;-64
2021/10/01 09:34:14;;;;;;;3.00;1.40;;;21.80;47.50;;;;;;5012210;28;20140;-64
2021/10/01 09:36:41;;;;;;;5.30;1.30;;;21.80;47.70;;;;;;5017904;28;20030;-64
2021/10/01 09:39:23;;;;;;;2.40;1.38;;;21.80;47.80;;;;;;5009558;28;20092;-64
2021/10/01 09:41:49;;;;;;;2.35;1.17;;;21.70;47.90;;;;;;5010959;28;20026;-61
2021/10/01 09:44:15;;;;;;;2.63;1.33;;;21.70;48.10;;;;;;5010995;28;20034;-63
2021/10/01 09:46:50;;;;;;;2.40;1.20;;;21.80;47.80;;;;;;5011257;28;20025;-64
2021/10/01 09:49:18;;;;;;;5.00;1.65;;;21.80;48.20;;;;;;5011368;28;20053;-64
2021/10/01 09:51:53;;;;;;;4.03;1.50;;;21.80;48.30;;;;;;5011096;28;20036;-64
2021/10/01 09:54:21;;;;;;;5.18;1.33;;;21.80;48.60;;;;;;5014001;28;20025;-64
2021/10/01 09:56:47;;;;;;;5.63;1.30;;;21.80;48.60;;;;;;5014459;28;20030;-61
2021/10/01 09:59:18;;;;;;;4.60;1.20;;;21.80;48.70;;;;;;5014363;28;20533;-64
2021/10/01 10:02:16;;;;;;;8.40;1.50;;;21.80;48.90;;;;;;5014899;28;20026;-64
2021/10/01 10:04:50;;;;;;;3.45;1.25;;;21.80;49.00;;;;;;4982600;28;20472;-64
2021/10/01 10:07:24;;;;;;;5.35;1.80;;;21.80;48.90;;;;;;5011945;28;20038;-63
2021/10/01 10:10:03;;;;;;;3.28;1.48;;;21.80;49.10;;;;;;5013640;28;20530;-60
2021/10/01 10:12:34;;;;;;;2.83;1.38;;;21.80;49.20;;;;;;5014669;28;20036;-64
2021/10/01 10:15:04;;;;;;;4.55;1.40;;;21.80;49.30;;;;;;5013709;28;20057;-63
2021/10/01 10:17:31;;;;;;;4.82;1.48;;;21.80;49.40;;;;;;5013174;28;20084;-64
2021/10/01 10:19:59;;;;;;;4.32;1.35;;;21.80;49.50;;;;;;5013491;28;20487;-65
2021/10/01 10:22:26;;;;;;;2.55;1.15;;;21.80;49.50;;;;;;5013816;28;20030;-64
2021/10/01 10:24:52;;;;;;;2.92;1.10;;;21.80;49.50;;;;;;5013635;28;20030;-63
2021/10/01 10:27:19;;;;;;;5.05;1.52;;;21.80;49.40;;;;;;5013624;28;20383;-64
2021/10/01 10:29:46;;;;;;;4.13;1.30;;;21.80;49.40;;;;;;5011763;28;20152;-64
2021/10/01 10:32:14;;;;;;;8.55;2.10;;;21.90;49.40;;;;;;5013229;28;20072;-64
2021/10/01 10:34:59;;;;;;;2.95;1.15;;;21.90;49.40;;;;;;5013990;28;20034;-63
2021/10/01 10:37:46;;;;;;;6.88;1.42;;;21.90;49.30;;;;;;5013363;28;20022;-61
2021/10/01 10:40:16;;;;;;;18.75;3.20;;;21.90;50.10;;;;;;5011056;28;20501;-62
2021/10/01 10:42:50;;;;;;;16.08;5.18;;;22.00;50.50;;;;;;5012444;28;20022;-62
2021/10/01 10:45:24;;;;;;;18.25;5.75;;;22.00;51.10;;;;;;5009308;28;20605;-61
2021/10/01 10:48:04;;;;;;;22.05;6.68;;;21.90;50.60;;;;;;5012858;28;20105;-61
2021/10/01 10:50:31;;;;;;;33.38;8.63;;;22.00;51.30;;;;;;5014006;28;20052;-61
2021/10/01 10:53:12;;;;;;;30.58;7.47;;;22.00;51.90;;;;;;5010093;28;20033;-61
2021/10/01 10:55:52;;;;;;;29.65;6.50;;;22.00;51.60;;;;;;5010494;28;20033;-61
2021/10/01 10:58:39;;;;;;;23.73;7.13;;;22.00;51.70;;;;;;5010701;28;20109;-61
2021/10/01 11:01:15;;;;;;;22.83;6.15;;;22.00;51.40;;;;;;5009683;28;20360;-61
2021/10/01 11:03:41;;;;;;;19.35;4.32;;;22.00;51.70;;;;;;5011010;28;20037;-61
2021/10/01 11:06:10;;;;;;;17.67;4.45;;;22.00;51.30;;;;;;5009962;28;20394;-61
2021/10/01 11:08:44;;;;;;;12.32;4.28;;;22.00;51.80;;;;;;5013331;28;20109;-62
2021/10/01 11:11:28;;;;;;;14.75;3.88;;;22.00;51.60;;;;;;5011842;28;20112;-61
2021/10/01 11:14:13;;;;;;;13.80;4.25;;;22.10;52.00;;;;;;5004517;28;20482;-61
2021/10/01 11:16:40;;;;;;;16.30;4.47;;;22.10;52.20;;;;;;5011361;28;20374;-61
2021/10/01 11:19:07;;;;;;;13.70;4.53;;;22.10;52.00;;;;;;5013185;28;20021;-61
2021/10/01 11:21:37;;;;;;;14.27;3.53;;;22.10;51.80;;;;;;5012986;28;20026;-61
2021/10/01 11:24:06;;;;;;;15.07;4.07;;;22.10;51.90;;;;;;4992967;28;20022;-61
2021/10/01 11:26:34;;;;;;;16.15;4.30;;;22.00;52.10;;;;;;5003721;28;20034;-61
2021/10/01 11:29:01;;;;;;;17.90;3.72;;;22.00;52.10;;;;;;5012464;28;20030;-61
2021/10/01 11:31:41;;;;;;;11.63;3.50;;;22.00;52.30;;;;;;5013115;28;20128;-61
2021/10/01 11:34:07;;;;;;;17.55;4.03;;;22.00;52.20;;;;;;5012309;28;20092;-61
2021/10/01 11:36:40;;;;;;;13.43;3.28;;;22.00;52.30;;;;;;5012678;28;20411;-61
2021/10/01 11:39:12;;;;;;;12.75;3.65;;;22.00;52.30;;;;;;5010565;28;20034;-61
2021/10/01 11:41:48;;;;;;;17.30;3.47;;;22.00;52.20;;;;;;5012846;28;20113;-61
2021/10/01 11:44:15;;;;;;;9.60;2.80;;;22.00;52.20;;;;;;5015074;28;20037;-61
2021/10/01 11:46:44;;;;;;;11.52;3.22;;;22.00;52.20;;;;;;5031210;28;20033;-61
2021/10/01 11:49:24;;;;;;;10.75;2.90;;;22.00;52.20;;;;;;5012238;28;20109;-61
2021/10/01 11:52:13;;;;;;;11.82;3.13;;;22.00;52.10;;;;;;5012118;28;20041;-61
2021/10/01 11:54:58;;;;;;;8.50;2.70;;;22.00;52.10;;;;;;5012713;28;20028;-61
2021/10/01 11:57:38;;;;;;;10.27;2.70;;;22.00;52.10;;;;;;5012409;28;20498;-61
2021/10/01 12:00:09;;;;;;;9.23;2.90;;;22.00;52.10;;;;;;5011954;28;20480;-61
2021/10/01 12:02:38;;;;;;;8.85;2.50;;;22.00;52.10;;;;;;5012590;28;20064;-61
2021/10/01 12:05:31;;;;;;;8.88;2.35;;;22.00;52.10;;;;;;5011753;28;20533;-61
2021/10/01 12:08:04;;;;;;;8.40;2.20;;;22.00;51.90;;;;;;5011447;28;20053;-60
2021/10/01 12:10:35;;;;;;;6.90;2.13;;;22.00;51.80;;;;;;5012164;28;20050;-61
2021/10/01 12:13:32;;;;;;;8.00;3.13;;;22.00;51.90;;;;;;5011670;28;20071;-59
2021/10/01 12:16:00;;;;;;;11.13;2.35;;;22.10;51.90;;;;;;4997091;28;20038;-61
2021/10/01 12:18:38;;;;;;;4.43;1.90;;;22.00;51.90;;;;;;5011794;28;20145;-61
2021/10/01 12:21:07;;;;;;;7.03;2.28;;;22.10;52.00;;;;;;4992194;28;20053;-61
2021/10/01 12:23:39;;;;;;;8.90;2.50;;;22.10;52.20;;;;;;5008189;28;20391;-60
2021/10/01 12:26:31;;;;;;;6.43;2.15;;;22.10;52.20;;;;;;5010410;28;20017;-61
2021/10/01 12:29:15;;;;;;;;;;;22.10;52.10;;;;;;4992344;28;20125;-61
2021/10/01 12:31:48;;;;;;;7.18;2.17;;;22.20;52.10;;;;;;4992721;28;20013;-61
2021/10/01 12:34:24;;;;;;;4.65;1.88;;;22.20;52.10;;;;;;5010586;28;20026;-60
2021/10/01 12:37:05;;;;;;;13.00;3.30;;;22.20;51.90;;;;;;5011536;28;20550;-61
2021/10/01 12:39:32;;;;;;;5.07;1.75;;;22.20;51.80;;;;;;5010509;28;20059;-60
2021/10/01 12:42:01;;;;;;;8.88;2.30;;;22.20;51.80;;;;;;5011184;28;20113;-61
2021/10/01 12:44:28;;;;;;;7.72;1.73;;;22.20;52.20;;;;;;5011772;28;20026;-60
2021/10/01 12:46:55;;;;;;;5.97;1.77;;;22.20;52.30;;;;;;5011280;28;20038;-61
2021/10/01 12:49:26;;;;;;;5.10;2.17;;;22.20;52.20;;;;;;5018507;28;20083;-60
2021/10/01 12:52:08;;;;;;;9.75;2.25;;;22.20;52.30;;;;;;5013976;28;20030;-62
2021/10/01 12:54:44;;;;;;;6.38;2.08;;;22.20;52.40;;;;;;5011487;28;20022;-60
2021/10/01 12:57:17;;;;;;;6.30;2.05;;;22.20;52.30;;;;;;5011239;28;20378;-60
2021/10/01 12:59:51;;;;;;;7.25;1.77;;;22.20;51.90;;;;;;5010831;28;20116;-61
2021/10/01 13:02:27;;;;;;;5.78;2.05;;;22.30;51.70;;;;;;5011348;28;20040;-60
2021/10/01 13:04:57;;;;;;;3.95;1.80;;;22.20;52.00;;;;;;5012036;28;20026;-61
2021/10/01 13:07:23;;;;;;;4.15;1.67;;;22.20;52.00;;;;;;5012016;28;20045;-60
2021/10/01 13:09:49;;;;;;;4.13;1.90;;;22.20;51.80;;;;;;5011752;28;20045;-60
2021/10/01 13:12:27;;;;;;;7.53;2.00;;;22.20;51.70;;;;;;5011077;28;20033;-60
2021/10/01 13:15:19;;;;;;;8.43;1.65;;;22.30;52.10;;;;;;5011521;28;20109;-61
2021/10/01 13:18:04;;;;;;;7.53;1.65;;;22.30;52.40;;;;;;5011746;28;20038;-60
2021/10/01 13:20:33;;;;;;;3.55;1.60;;;22.30;52.10;;;;;;5009562;28;20040;-60
2021/10/01 13:23:02;;;;;;;5.00;1.52;;;22.30;52.20;;;;;;5010691;28;20053;-61
2021/10/01 13:25:31;;;;;;;4.47;1.50;;;22.30;52.20;;;;;;5011762;28;20026;-60
2021/10/01 13:27:58;;;;;;;7.60;1.70;;;22.30;52.10;;;;;;5011134;28;20105;-61
2021/10/01 13:30:24;;;;;;;5.13;1.70;;;22.30;52.00;;;;;;5015571;28;20036;-59
2021/10/01 13:32:50;;;;;;;3.90;1.35;;;22.30;51.60;;;;;;5015514;28;20033;-59
2021/10/01 13:35:16;;;;;;;6.57;2.38;;;22.30;52.00;;;;;;5015038;28;20079;-60
2021/10/01 13:37:45;;;;;;;5.53;2.10;;;22.50;52.60;;;;;;5014866;28;20029;-59
2021/10/01 13:40:12;;;;;;;5.22;1.58;;;22.70;51.80;;;;;;5013568;28;20088;-60
2021/10/01 13:42:37;;;;;;;4.65;1.48;;;23.00;50.80;;;;;;5015211;28;20101;-60
2021/10/01 13:45:04;;;;;;;8.55;2.00;;;22.90;50.80;;;;;;5014448;28;20101;-60
2021/10/01 13:47:34;;;;;;;6.93;2.05;;;22.80;51.40;;;;;;5014988;28;20034;-61
2021/10/01 13:50:02;;;;;;;3.67;1.58;;;23.60;50.60;;;;;;4998421;28;20458;-62
2021/10/01 13:52:27;;;;;;;4.65;1.80;;;23.40;50.30;;;;;;5022725;28;20029;-62
2021/10/01 13:54:53;;;;;;;4.07;2.00;;;23.30;50.80;;;;;;5034744;28;20080;-62
2021/10/01 13:57:19;;;;;;;26.92;2.78;;;23.10;51.20;;;;;;5027721;28;20107;-59
2021/10/01 13:59:46;;;;;;;11.95;1.92;;;23.00;52.40;;;;;;5015003;28;20025;-60
2021/10/01 14:02:12;;;;;;;4.72;1.85;;;22.90;52.00;;;;;;5014042;28;20037;-60
2021/10/01 14:04:37;;;;;;;7.53;2.13;;;22.80;52.30;;;;;;5014571;28;20375;-60
2021/10/01 14:07:03;;;;;;;5.25;1.75;;;22.70;53.40;;;;;;5013886;28;20053;-64
2021/10/01 14:09:29;;;;;;;7.90;2.10;;;22.70;53.30;;;;;;5014172;28;20046;-63
2021/10/01 14:11:55;;;;;;;4.57;1.40;;;22.70;53.90;;;;;;5013915;28;20038;-61
2021/10/01 14:14:21;;;;;;;3.45;1.50;;;22.80;53.50;;;;;;5014602;28;20099;-62
2021/10/01 14:16:47;;;;;;;6.82;1.98;;;22.80;54.30;;;;;;5014277;28;20045;-62
2021/10/01 14:19:12;;;;;;;9.05;2.95;;;22.70;55.30;;;;;;5013693;28;20026;-61
2021/10/01 14:21:38;;;;;;;6.30;1.90;;;22.70;55.10;;;;;;5014643;28;20034;-63
2021/10/01 14:24:04;;;;;;;6.43;2.22;;;22.70;56.80;;;;;;5012302;28;20069;-62
2021/10/01 14:26:30;;;;;;;5.30;1.83;;;22.70;55.90;;;;;;5014836;28;20026;-63
2021/10/01 14:28:57;;;;;;;8.02;3.25;;;22.60;57.00;;;;;;5014226;28;20037;-60